TimeEST,TemperatureF,Dew PointF,Humidity,Sea Level PressureIn,VisibilityMPH,Wind Direction,Wind SpeedMPH,Gust SpeedMPH,PrecipitationIn,Events,Conditions,WindDirDegrees,DateUTC
12:54 AM,19.9,12.9,74,30.03,10.0,WNW,9.2,-,0.00,Snow,Light Snow,290,2013-01-02 05:54:00
1:54 AM,19.9,12.0,71,30.03,10.0,West,10.4,-,0.00,Snow,Light Snow,280,2013-01-02 06:54:00
2:54 AM,21.0,10.9,65,30.03,10.0,WNW,10.4,-,0.00,Snow,Light Snow,290,2013-01-02 07:54:00
3:54 AM,19.9,10.9,68,30.03,10.0,West,13.8,-,0.00,Snow,Light Snow,280,2013-01-02 08:54:00
4:54 AM,19.9,10.0,65,30.04,9.0,WSW,10.4,-,0.00,Snow,Light Snow,250,2013-01-02 09:54:00
5:54 AM,21.0,10.0,63,30.05,9.0,WSW,12.7,24.2,0.00,Snow,Light Snow,250,2013-01-02 10:54:00
6:54 AM,21.2,10.4,63,30.02,10.0,West,17.3,21.9,N/A,Snow,Light Snow,260,2013-01-02 11:54:00
7:54 AM,21.0,12.0,68,30.08,10.0,West,15.0,-,0.00,Snow,Light Snow,260,2013-01-02 12:54:00
8:54 AM,21.0,12.0,68,30.09,10.0,WSW,15.0,-,0.00,,Mostly Cloudy,250,2013-01-02 13:54:00
9:54 AM,21.9,14.0,72,30.10,9.0,WSW,15.0,-,0.00,Snow,Light Snow,250,2013-01-02 14:54:00
10:54 AM,25.0,16.0,69,30.10,10.0,West,16.1,-,0.00,,Mostly Cloudy,260,2013-01-02 15:54:00
11:54 AM,25.0,16.0,69,30.10,10.0,West,15.0,-,N/A,,Mostly Cloudy,260,2013-01-02 16:54:00
12:54 PM,26.1,17.1,69,30.11,10.0,West,13.8,-,N/A,,Mostly Cloudy,260,2013-01-02 17:54:00
1:54 PM,26.1,17.1,69,30.12,10.0,West,12.7,-,N/A,,Mostly Cloudy,280,2013-01-02 18:54:00
2:54 PM,26.1,16.0,66,30.15,10.0,West,11.5,-,N/A,,Mostly Cloudy,270,2013-01-02 19:54:00
3:54 PM,25.0,16.0,69,30.16,10.0,West,12.7,-,N/A,,Mostly Cloudy,260,2013-01-02 20:54:00
4:54 PM,23.0,15.1,72,30.17,10.0,West,6.9,-,N/A,,Scattered Clouds,270,2013-01-02 21:54:00
5:54 PM,23.0,15.1,72,30.19,10.0,West,8.1,-,N/A,,Mostly Cloudy,270,2013-01-02 22:54:00
6:54 PM,21.9,14.0,72,30.18,9.0,WSW,9.2,-,0.00,Snow,Light Snow,250,2013-01-02 23:54:00
7:54 PM,21.9,14.0,72,30.19,9.0,West,8.1,-,0.00,Snow,Light Snow,270,2013-01-03 00:54:00
8:54 PM,21.9,14.0,72,30.19,9.0,West,5.8,-,0.00,Snow,Light Snow,280,2013-01-03 01:54:00
9:54 PM,21.0,12.9,71,30.21,9.0,WNW,6.9,-,0.00,Snow,Light Snow,290,2013-01-03 02:54:00
10:54 PM,19.0,12.0,74,30.22,9.0,WNW,8.1,-,0.00,Snow,Light Snow,290,2013-01-03 03:54:00
11:54 PM,18.0,10.9,74,30.21,10.0,Calm,Calm,-,0.00,,Scattered Clouds,0,2013-01-03 04:54:00